createdAt,value
2017-11-25T00:00:29.461Z,1003.84
2017-11-25T00:01:29.452Z,1003.83
2017-11-25T00:02:29.440Z,1003.79
2017-11-25T00:03:29.435Z,1003.83
2017-11-25T00:04:29.423Z,1003.85
2017-11-25T00:05:29.410Z,1003.85
2017-11-25T00:06:29.399Z,1003.87
2017-11-25T00:07:29.393Z,1003.81
2017-11-25T00:08:29.381Z,1003.87
2017-11-25T00:09:29.373Z,1003.88
2017-11-25T00:10:29.356Z,1003.89
2017-11-25T00:11:29.347Z,1003.88
2017-11-25T00:12:29.341Z,1003.92
2017-11-25T00:13:29.326Z,1003.87
2017-11-25T00:14:29.323Z,1003.92
2017-11-25T00:15:29.306Z,1003.88
2017-11-25T00:16:29.296Z,1003.84
2017-11-25T00:17:29.286Z,1003.85
2017-11-25T00:18:29.273Z,1003.83
2017-11-25T00:19:29.265Z,1003.80
2017-11-25T00:20:29.256Z,1003.83
2017-11-25T00:21:29.245Z,1003.82
2017-11-25T00:22:29.231Z,1003.83
2017-11-25T00:23:29.221Z,1003.82
2017-11-25T00:24:29.211Z,1003.81
2017-11-25T00:25:29.205Z,1003.81
2017-11-25T00:26:29.192Z,1003.84
2017-11-25T00:27:29.185Z,1003.85
2017-11-25T00:28:29.174Z,1003.84
2017-11-25T00:29:29.160Z,1003.85
2017-11-25T00:30:29.149Z,1003.82
2017-11-25T00:31:29.138Z,1003.87
2017-11-25T00:32:29.129Z,1003.87
2017-11-25T00:33:29.120Z,1003.84
2017-11-25T00:34:29.104Z,1003.83
2017-11-25T00:35:29.097Z,1003.83
2017-11-25T00:36:29.086Z,1003.80
2017-11-25T00:37:29.078Z,1003.79
2017-11-25T00:38:29.063Z,1003.77
2017-11-25T00:39:29.055Z,1003.81
2017-11-25T00:40:29.044Z,1003.75
2017-11-25T00:41:29.041Z,1003.77
2017-11-25T00:42:29.023Z,1003.76
2017-11-25T00:43:29.010Z,1003.78
2017-11-25T00:44:29.001Z,1003.81
2017-11-25T00:45:28.988Z,1003.83
2017-11-25T00:46:28.982Z,1003.84
2017-11-25T00:47:29.119Z,1003.83
2017-11-25T00:48:28.997Z,1003.85
2017-11-25T00:49:28.982Z,1003.82
2017-11-25T00:50:28.983Z,1003.83
2017-11-25T00:51:28.931Z,1003.81
2017-11-25T00:52:28.916Z,1003.83
2017-11-25T00:53:28.913Z,1003.74
2017-11-25T00:54:28.897Z,1003.78
2017-11-25T00:55:28.888Z,1003.82
2017-11-25T00:56:28.875Z,1003.84
2017-11-25T00:57:28.866Z,1003.84
2017-11-25T00:58:28.852Z,1003.81
2017-11-25T00:59:28.842Z,1003.80
2017-11-25T01:00:28.833Z,1003.81
2017-11-25T01:01:28.821Z,1003.77
2017-11-25T01:02:28.815Z,1003.76
2017-11-25T01:03:28.799Z,1003.72
2017-11-25T01:04:28.792Z,1003.71
2017-11-25T01:05:28.778Z,1003.66
2017-11-25T01:06:28.775Z,1003.61
2017-11-25T01:07:28.757Z,1003.62
2017-11-25T01:08:28.747Z,1003.59
2017-11-25T01:09:28.738Z,1003.60
2017-11-25T01:10:28.731Z,1003.61
2017-11-25T01:11:28.716Z,1003.64
2017-11-25T01:12:28.713Z,1003.68
2017-11-25T01:13:28.694Z,1003.70
2017-11-25T01:14:28.682Z,1003.67
2017-11-25T01:15:28.673Z,1003.68
2017-11-25T01:16:28.687Z,1003.67
2017-11-25T01:17:28.660Z,1003.67
2017-11-25T01:18:28.644Z,1003.69
2017-11-25T01:19:28.643Z,1003.73
2017-11-25T01:20:28.617Z,1003.73
2017-11-25T01:21:28.611Z,1003.69
2017-11-25T01:22:28.598Z,1003.70
2017-11-25T01:23:28.596Z,1003.74
2017-11-25T01:24:28.576Z,1003.68
2017-11-25T01:25:28.568Z,1003.69
2017-11-25T01:26:28.557Z,1003.64
2017-11-25T01:27:28.546Z,1003.65
2017-11-25T01:28:28.538Z,1003.63
2017-11-25T01:29:28.526Z,1003.59
2017-11-25T01:30:28.512Z,1003.60
2017-11-25T01:31:28.511Z,1003.66
2017-11-25T01:32:28.494Z,1003.68
2017-11-25T01:33:28.481Z,1003.69
2017-11-25T01:34:28.471Z,1003.68
2017-11-25T01:35:28.461Z,1003.71
2017-11-25T01:36:28.450Z,1003.72
2017-11-25T01:37:28.440Z,1003.69
2017-11-25T01:38:28.430Z,1003.71
2017-11-25T01:39:28.423Z,1003.73
2017-11-25T01:40:28.408Z,1003.77
2017-11-25T01:41:28.396Z,1003.75
2017-11-25T01:42:28.388Z,1003.72
2017-11-25T01:43:28.378Z,1003.68
2017-11-25T01:44:28.369Z,1003.64
2017-11-25T01:45:28.354Z,1003.58
2017-11-25T01:46:28.347Z,1003.53
2017-11-25T01:47:28.335Z,1003.47
2017-11-25T01:48:28.332Z,1003.46
2017-11-25T01:49:28.313Z,1003.47
2017-11-25T01:50:28.316Z,1003.46
2017-11-25T01:51:28.299Z,1003.45
2017-11-25T01:52:28.285Z,1003.44
2017-11-25T01:53:28.273Z,1003.39
2017-11-25T01:54:28.264Z,1003.36
2017-11-25T01:55:28.253Z,1003.37
2017-11-25T01:56:28.239Z,1003.36
2017-11-25T01:57:28.239Z,1003.38
2017-11-25T01:58:28.228Z,1003.34
2017-11-25T01:59:28.209Z,1003.29
2017-11-25T02:00:28.199Z,1003.31
2017-11-25T02:01:28.187Z,1003.28
2017-11-25T02:02:28.177Z,1003.25
2017-11-25T02:03:28.166Z,1003.24
2017-11-25T02:04:28.171Z,1003.24
2017-11-25T02:05:28.154Z,1003.24
2017-11-25T02:06:28.133Z,1003.23
2017-11-25T02:07:28.123Z,1003.26
2017-11-25T02:08:28.113Z,1003.32
2017-11-25T02:09:28.102Z,1003.31
2017-11-25T02:10:28.093Z,1003.26
2017-11-25T02:11:28.090Z,1003.27
2017-11-25T02:12:28.070Z,1003.25
2017-11-25T02:13:28.062Z,1003.21
2017-11-25T02:14:28.049Z,1003.20
2017-11-25T02:15:28.038Z,1003.16
2017-11-25T02:16:28.027Z,1003.13
2017-11-25T02:17:28.018Z,1003.07
2017-11-25T02:18:28.008Z,1003.07
2017-11-25T02:19:27.996Z,1003.09
2017-11-25T02:20:27.987Z,1003.04
2017-11-25T02:21:27.976Z,1003.04
2017-11-25T02:22:27.965Z,1003.00
2017-11-25T02:23:27.952Z,1003.05
2017-11-25T02:24:27.950Z,1003.03
2017-11-25T02:25:27.937Z,1003.05
2017-11-25T02:26:27.921Z,1003.05
2017-11-25T02:27:27.912Z,1003.06
2017-11-25T02:28:27.907Z,1002.96
2017-11-25T02:29:27.892Z,1002.99
2017-11-25T02:30:27.881Z,1003.05
2017-11-25T02:31:27.872Z,1003.04
2017-11-25T02:32:27.869Z,1003.00
2017-11-25T02:33:27.849Z,1002.99
2017-11-25T02:34:27.841Z,1002.99
2017-11-25T02:35:27.833Z,1003.00
2017-11-25T02:36:27.831Z,1002.98
2017-11-25T02:37:27.809Z,1002.99
2017-11-25T02:38:27.794Z,1003.01
2017-11-25T02:39:27.787Z,1003.00
2017-11-25T02:40:27.780Z,1003.03
2017-11-25T02:41:27.769Z,1003.03
2017-11-25T02:42:27.755Z,1002.99
2017-11-25T02:43:27.747Z,1002.98
2017-11-25T02:44:48.747Z,1002.93
2017-11-25T02:45:27.721Z,1002.88
2017-11-25T02:46:27.712Z,1002.80
2017-11-25T02:47:27.702Z,1002.82
2017-11-25T02:48:27.690Z,1002.81
2017-11-25T02:49:27.677Z,1002.79
2017-11-25T02:50:27.673Z,1002.79
2017-11-25T02:51:27.656Z,1002.76
2017-11-25T02:52:27.660Z,1002.67
2017-11-25T02:53:27.641Z,1002.69
2017-11-25T02:54:27.650Z,1002.69
2017-11-25T02:55:27.615Z,1002.70
2017-11-25T02:56:27.612Z,1002.67
2017-11-25T02:57:27.607Z,1002.66
2017-11-25T02:58:27.585Z,1002.65
2017-11-25T02:59:27.571Z,1002.74
2017-11-25T03:00:27.564Z,1002.77
2017-11-25T03:01:27.550Z,1002.84
2017-11-25T03:02:27.540Z,1002.86
2017-11-25T03:03:27.529Z,1002.85
2017-11-25T03:04:27.528Z,1002.86
2017-11-25T03:05:27.508Z,1002.84
2017-11-25T03:06:27.498Z,1002.82
2017-11-25T03:07:27.487Z,1002.81
2017-11-25T03:08:27.477Z,1002.80
2017-11-25T03:09:27.467Z,1002.72
2017-11-25T03:10:27.458Z,1002.71
2017-11-25T03:11:27.446Z,1002.69
2017-11-25T03:12:27.449Z,1002.70
2017-11-25T03:13:27.424Z,1002.76
2017-11-25T03:14:27.414Z,1002.75
2017-11-25T03:15:27.410Z,1002.75
2017-11-25T03:16:27.394Z,1002.72
2017-11-25T03:17:27.384Z,1002.71
2017-11-25T03:18:27.371Z,1002.70
2017-11-25T03:19:27.359Z,1002.70
2017-11-25T03:20:27.349Z,1002.72
2017-11-25T03:21:27.340Z,1002.67
2017-11-25T03:22:27.329Z,1002.66
2017-11-25T03:23:27.317Z,1002.71
2017-11-25T03:24:27.307Z,1002.66
2017-11-25T03:25:27.300Z,1002.65
2017-11-25T03:26:27.296Z,1002.62
2017-11-25T03:27:27.290Z,1002.57
2017-11-25T03:28:27.266Z,1002.53
2017-11-25T03:29:27.262Z,1002.51
2017-11-25T03:30:27.247Z,1002.53
2017-11-25T03:31:27.238Z,1002.56
2017-11-25T03:32:27.249Z,1002.51
2017-11-25T03:33:27.224Z,1002.53
2017-11-25T03:34:27.202Z,1002.51
2017-11-25T03:35:27.197Z,1002.52
2017-11-25T03:36:27.183Z,1002.52
2017-11-25T03:37:27.170Z,1002.53
2017-11-25T03:38:27.160Z,1002.51
2017-11-25T03:39:27.152Z,1002.49
2017-11-25T03:40:27.144Z,1002.51
2017-11-25T03:41:27.129Z,1002.55
2017-11-25T03:42:27.124Z,1002.52
2017-11-25T03:43:27.114Z,1002.50
2017-11-25T03:44:27.105Z,1002.46
2017-11-25T03:45:27.118Z,1002.42
2017-11-25T03:46:27.076Z,1002.41
2017-11-25T03:47:27.073Z,1002.43
2017-11-25T03:48:27.059Z,1002.46
2017-11-25T03:49:27.058Z,1002.47
2017-11-25T03:50:27.034Z,1002.45
2017-11-25T03:51:27.022Z,1002.45
2017-11-25T03:52:27.013Z,1002.37
2017-11-25T03:53:27.009Z,1002.37
2017-11-25T03:54:26.995Z,1002.32
2017-11-25T03:55:26.981Z,1002.33
2017-11-25T03:56:26.969Z,1002.36
2017-11-25T03:57:26.960Z,1002.39
2017-11-25T03:58:26.956Z,1002.43
2017-11-25T03:59:26.941Z,1002.42
2017-11-25T04:00:26.930Z,1002.38
2017-11-25T04:01:26.918Z,1002.37
2017-11-25T04:02:26.906Z,1002.29
2017-11-25T04:03:26.902Z,1002.27
2017-11-25T04:04:26.889Z,1002.26
2017-11-25T04:05:26.874Z,1002.24
2017-11-25T04:06:26.863Z,1002.21
2017-11-25T04:07:26.859Z,1002.19
2017-11-25T04:08:26.844Z,1002.17
2017-11-25T04:09:26.834Z,1002.15
2017-11-25T04:10:26.822Z,1002.17
2017-11-25T04:11:26.810Z,1002.17
2017-11-25T04:12:26.800Z,1002.13
2017-11-25T04:13:26.789Z,1002.14
2017-11-25T04:14:26.778Z,1002.10
2017-11-25T04:15:26.767Z,1002.11
2017-11-25T04:16:26.757Z,1002.11
2017-11-25T04:17:26.747Z,1002.06
2017-11-25T04:18:26.752Z,1002.05
2017-11-25T04:19:26.726Z,1001.99
2017-11-25T04:20:26.718Z,1001.97
2017-11-25T04:21:26.713Z,1001.96
2017-11-25T04:22:26.694Z,1001.94
2017-11-25T04:23:26.682Z,1001.92
2017-11-25T04:24:26.673Z,1001.90
2017-11-25T04:25:26.663Z,1001.90
2017-11-25T04:26:26.657Z,1001.89
2017-11-25T04:27:26.642Z,1001.87
2017-11-25T04:28:26.629Z,1001.86
2017-11-25T04:29:26.618Z,1001.87
2017-11-25T04:30:26.623Z,1001.86
2017-11-25T04:31:26.595Z,1001.87
2017-11-25T04:32:26.591Z,1001.87
2017-11-25T04:33:26.580Z,1001.87
2017-11-25T04:34:26.568Z,1001.91
2017-11-25T04:35:26.554Z,1001.92
2017-11-25T04:36:26.544Z,1001.93
2017-11-25T04:37:26.532Z,1001.89
2017-11-25T04:38:26.523Z,1001.88
2017-11-25T04:39:26.519Z,1001.86
2017-11-25T04:40:26.500Z,1001.80
2017-11-25T04:41:26.492Z,1001.74
2017-11-25T04:42:26.478Z,1001.73
2017-11-25T04:43:26.468Z,1001.74
2017-11-25T04:44:26.459Z,1001.71
2017-11-25T04:45:26.451Z,1001.69
2017-11-25T04:46:26.437Z,1001.71
2017-11-25T04:47:26.424Z,1001.73
2017-11-25T04:48:26.415Z,1001.79
2017-11-25T04:49:26.404Z,1001.77
2017-11-25T04:50:26.395Z,1001.76
2017-11-25T04:51:26.391Z,1001.77
2017-11-25T04:52:26.412Z,1001.73
2017-11-25T04:53:26.369Z,1001.72
2017-11-25T04:54:26.351Z,1001.73
2017-11-25T04:55:26.341Z,1001.70
2017-11-25T04:56:26.331Z,1001.67
2017-11-25T04:57:26.323Z,1001.70
2017-11-25T04:58:26.311Z,1001.72
2017-11-25T04:59:26.302Z,1001.68
2017-11-25T05:00:26.287Z,1001.69
2017-11-25T05:01:26.280Z,1001.68
2017-11-25T05:02:26.272Z,1001.67
2017-11-25T05:03:26.254Z,1001.68
2017-11-25T05:04:26.264Z,1001.68
2017-11-25T05:05:26.235Z,1001.67
2017-11-25T05:06:26.223Z,1001.71
2017-11-25T05:07:26.210Z,1001.75
2017-11-25T05:08:26.201Z,1001.75
2017-11-25T05:09:26.198Z,1001.75
2017-11-25T05:10:26.180Z,1001.72
2017-11-25T05:11:26.175Z,1001.75
2017-11-25T05:12:26.159Z,1001.76
2017-11-25T05:13:26.147Z,1001.69
2017-11-25T05:14:26.144Z,1001.67
2017-11-25T05:15:26.140Z,1001.63
2017-11-25T05:16:26.120Z,1001.57
2017-11-25T05:17:26.106Z,1001.51
2017-11-25T05:18:26.095Z,1001.45
2017-11-25T05:19:26.081Z,1001.36
2017-11-25T05:20:26.094Z,1001.33
2017-11-25T05:21:26.069Z,1001.29
2017-11-25T05:22:26.051Z,1001.29
2017-11-25T05:23:26.038Z,1001.32
2017-11-25T05:24:26.034Z,1001.37
2017-11-25T05:25:26.016Z,1001.44
2017-11-25T05:26:26.008Z,1001.47
2017-11-25T05:27:25.995Z,1001.49
2017-11-25T05:28:26.011Z,1001.53
2017-11-25T05:29:25.976Z,1001.55
2017-11-25T05:30:25.964Z,1001.57
2017-11-25T05:31:25.953Z,1001.56
2017-11-25T05:32:25.941Z,1001.59
2017-11-25T05:33:25.951Z,1001.55
2017-11-25T05:34:25.918Z,1001.57
2017-11-25T05:35:25.910Z,1001.57
2017-11-25T05:36:25.900Z,1001.57
2017-11-25T05:37:25.890Z,1001.57
2017-11-25T05:38:25.877Z,1001.57
2017-11-25T05:39:25.867Z,1001.54
2017-11-25T05:40:25.853Z,1001.57
2017-11-25T05:41:25.849Z,1001.54
2017-11-25T05:42:25.835Z,1001.57
2017-11-25T05:43:25.827Z,1001.54
2017-11-25T05:44:25.822Z,1001.57
2017-11-25T05:45:25.803Z,1001.55
2017-11-25T05:46:25.817Z,1001.60
2017-11-25T05:47:25.779Z,1001.59
2017-11-25T05:48:25.769Z,1001.57
2017-11-25T05:49:25.764Z,1001.56
2017-11-25T05:50:25.748Z,1001.52
2017-11-25T05:51:25.741Z,1001.53
2017-11-25T05:52:25.728Z,1001.59
2017-11-25T05:53:25.715Z,1001.67
2017-11-25T05:54:25.703Z,1001.71
2017-11-25T05:55:25.695Z,1001.74
2017-11-25T05:56:25.706Z,1001.73
2017-11-25T05:57:25.679Z,1001.77
2017-11-25T05:58:25.671Z,1001.80
2017-11-25T05:59:25.654Z,1001.80
2017-11-25T06:00:25.646Z,1001.82
2017-11-25T06:01:25.631Z,1001.85
2017-11-25T06:02:25.622Z,1001.84
2017-11-25T06:03:25.607Z,1001.86
2017-11-25T06:04:25.599Z,1001.89
2017-11-25T06:05:25.586Z,1001.86
2017-11-25T06:06:25.574Z,1001.84
2017-11-25T06:07:25.563Z,1001.84
2017-11-25T06:08:25.554Z,1001.87
2017-11-25T06:09:25.547Z,1001.86
2017-11-25T06:10:25.531Z,1001.86
2017-11-25T06:11:25.522Z,1001.87
2017-11-25T06:12:25.517Z,1001.86
2017-11-25T06:13:25.500Z,1001.85
2017-11-25T06:14:25.488Z,1001.83
2017-11-25T06:15:25.477Z,1001.84
2017-11-25T06:16:25.468Z,1001.84
2017-11-25T06:17:25.459Z,1001.80
2017-11-25T06:18:25.446Z,1001.82
2017-11-25T06:19:25.435Z,1001.80
2017-11-25T06:20:25.424Z,1001.81
2017-11-25T06:21:25.412Z,1001.80
2017-11-25T06:22:25.402Z,1001.80
2017-11-25T06:23:25.390Z,1001.81
2017-11-25T06:24:25.383Z,1001.84
2017-11-25T06:25:25.373Z,1001.83
2017-11-25T06:26:25.359Z,1001.84
2017-11-25T06:27:25.349Z,1001.82
2017-11-25T06:28:25.337Z,1001.78
2017-11-25T06:29:25.328Z,1001.75
2017-11-25T06:30:25.319Z,1001.71
2017-11-25T06:31:25.303Z,1001.74
2017-11-25T06:32:25.293Z,1001.75
2017-11-25T06:33:25.282Z,1001.74
2017-11-25T06:34:25.279Z,1001.73
2017-11-25T06:35:25.259Z,1001.75
2017-11-25T06:36:25.255Z,1001.80
2017-11-25T06:37:25.242Z,1001.79
2017-11-25T06:38:25.227Z,1001.77
2017-11-25T06:39:25.216Z,1001.74
2017-11-25T06:40:25.207Z,1001.71
2017-11-25T06:41:25.201Z,1001.66
2017-11-25T06:42:25.185Z,1001.63
2017-11-25T06:43:25.173Z,1001.61
2017-11-25T06:44:25.171Z,1001.65
2017-11-25T06:45:25.153Z,1001.65
2017-11-25T06:46:25.139Z,1001.62
2017-11-25T06:47:25.130Z,1001.65
2017-11-25T06:48:25.121Z,1001.61
2017-11-25T06:49:25.107Z,1001.62
2017-11-25T06:50:25.113Z,1001.65
2017-11-25T06:51:25.086Z,1001.63
2017-11-25T06:52:25.077Z,1001.64
2017-11-25T06:53:25.069Z,1001.67
2017-11-25T06:54:25.066Z,1001.65
2017-11-25T06:55:25.043Z,1001.72
2017-11-25T06:56:25.037Z,1001.68
2017-11-25T06:57:25.039Z,1001.73
2017-11-25T06:58:25.010Z,1001.71
2017-11-25T06:59:25.016Z,1001.69
2017-11-25T07:00:24.987Z,1001.71
2017-11-25T07:01:24.982Z,1001.71
2017-11-25T07:02:24.967Z,1001.68
2017-11-25T07:03:24.955Z,1001.68
2017-11-25T07:04:24.951Z,1001.71
2017-11-25T07:05:24.935Z,1001.73
2017-11-25T07:06:24.923Z,1001.73
2017-11-25T07:07:24.919Z,1001.79
2017-11-25T07:08:24.903Z,1001.78
2017-11-25T07:09:24.898Z,1001.78
2017-11-25T07:10:24.878Z,1001.81
2017-11-25T07:11:24.868Z,1001.81
2017-11-25T07:12:24.856Z,1001.84
2017-11-25T07:13:24.849Z,1001.85
2017-11-25T07:14:24.837Z,1001.84
2017-11-25T07:15:24.823Z,1001.85
2017-11-25T07:16:24.811Z,1001.87
2017-11-25T07:17:24.802Z,1001.89
2017-11-25T07:18:24.789Z,1001.90
2017-11-25T07:19:24.778Z,1001.86
2017-11-25T07:20:24.768Z,1001.91
2017-11-25T07:21:24.762Z,1001.94
2017-11-25T07:22:24.747Z,1001.97
2017-11-25T07:23:24.737Z,1002.02
2017-11-25T07:24:24.725Z,1002.05
2017-11-25T07:25:24.721Z,1002.09
2017-11-25T07:26:25.549Z,1002.13
2017-11-25T07:27:24.728Z,1002.14
2017-11-25T07:28:24.684Z,1002.14
2017-11-25T07:29:24.671Z,1002.13
2017-11-25T07:30:24.659Z,1002.17
2017-11-25T07:31:24.646Z,1002.17
2017-11-25T07:32:24.657Z,1002.19
2017-11-25T07:33:24.630Z,1002.27
2017-11-25T07:34:24.616Z,1002.22
2017-11-25T07:35:24.629Z,1002.32
2017-11-25T07:36:24.600Z,1002.30
2017-11-25T07:37:24.591Z,1002.31
2017-11-25T07:38:24.572Z,1002.31
2017-11-25T07:39:24.567Z,1002.28
2017-11-25T07:40:24.552Z,1002.36
2017-11-25T07:41:24.543Z,1002.35
2017-11-25T07:42:24.529Z,1002.36
2017-11-25T07:43:24.515Z,1002.39
2017-11-25T07:44:24.504Z,1002.44
2017-11-25T07:45:24.496Z,1002.40
2017-11-25T07:46:24.484Z,1002.45
2017-11-25T07:47:24.473Z,1002.43
2017-11-25T07:48:24.462Z,1002.48
2017-11-25T07:49:24.450Z,1002.52
2017-11-25T07:50:24.439Z,1002.49
2017-11-25T07:51:24.430Z,1002.49
2017-11-25T07:52:24.420Z,1002.50
2017-11-25T07:53:24.407Z,1002.52
2017-11-25T07:54:24.464Z,1002.54
2017-11-25T07:55:24.385Z,1002.57
2017-11-25T07:56:24.375Z,1002.59
2017-11-25T07:57:24.366Z,1002.59
2017-11-25T07:58:24.352Z,1002.62
2017-11-25T07:59:24.345Z,1002.61
2017-11-25T08:00:24.335Z,1002.62
2017-11-25T08:01:24.392Z,1002.58
2017-11-25T08:02:24.322Z,1002.61
2017-11-25T08:03:24.298Z,1002.66
2017-11-25T08:04:24.287Z,1002.66
2017-11-25T08:05:24.277Z,1002.64
2017-11-25T08:06:24.267Z,1002.70
2017-11-25T08:07:24.255Z,1002.65
2017-11-25T08:08:24.248Z,1002.64
2017-11-25T08:09:24.231Z,1002.72
2017-11-25T08:10:24.221Z,1002.72
2017-11-25T08:11:24.211Z,1002.72
2017-11-25T08:12:24.207Z,1002.72
2017-11-25T08:13:24.190Z,1002.72
2017-11-25T08:14:24.179Z,1002.77
2017-11-25T08:15:24.169Z,1002.74
2017-11-25T08:16:24.155Z,1002.76
2017-11-25T08:17:24.147Z,1002.75
2017-11-25T08:18:24.139Z,1002.74
2017-11-25T08:19:24.125Z,1002.79
2017-11-25T08:20:24.116Z,1002.79
2017-11-25T08:21:24.103Z,1002.77
2017-11-25T08:22:24.089Z,1002.85
2017-11-25T08:23:24.090Z,1002.85
2017-11-25T08:24:24.068Z,1002.87
2017-11-25T08:25:24.070Z,1002.89
2017-11-25T08:26:24.054Z,1002.89
2017-11-25T08:27:24.038Z,1002.88
2017-11-25T08:28:24.027Z,1002.91
2017-11-25T08:29:24.025Z,1002.91
2017-11-25T08:30:24.003Z,1002.92
2017-11-25T08:31:23.996Z,1002.91
2017-11-25T08:32:23.989Z,1002.91
2017-11-25T08:33:23.973Z,1002.97
2017-11-25T08:34:23.978Z,1002.91
2017-11-25T08:35:23.951Z,1002.96
2017-11-25T08:36:23.945Z,1002.96
2017-11-25T08:37:23.940Z,1003.01
2017-11-25T08:38:23.917Z,1003.01
2017-11-25T08:39:23.916Z,1003.00
2017-11-25T08:40:23.896Z,1003.03
2017-11-25T08:41:23.900Z,1003.05
2017-11-25T08:42:23.877Z,1003.06
2017-11-25T08:43:23.894Z,1003.05
2017-11-25T08:44:23.855Z,1003.10
2017-11-25T08:45:23.846Z,1003.14
2017-11-25T08:46:23.833Z,1003.05
2017-11-25T08:47:23.821Z,1003.17
2017-11-25T08:48:23.810Z,1003.12
2017-11-25T08:49:23.801Z,1003.17
2017-11-25T08:50:23.789Z,1003.12
2017-11-25T08:51:23.776Z,1003.18
2017-11-25T08:52:23.768Z,1003.16
2017-11-25T08:53:23.774Z,1003.12
2017-11-25T08:54:23.744Z,1003.12
2017-11-25T08:55:23.737Z,1003.17
2017-11-25T08:56:23.725Z,1003.16
2017-11-25T08:57:23.713Z,1003.20
2017-11-25T08:58:23.708Z,1003.20
2017-11-25T08:59:23.696Z,1003.27
2017-11-25T09:00:23.682Z,1003.28
2017-11-25T09:01:23.671Z,1003.26
2017-11-25T09:02:23.659Z,1003.25
2017-11-25T09:03:23.650Z,1003.24
2017-11-25T09:04:23.637Z,1003.26
2017-11-25T09:05:23.628Z,1003.27
2017-11-25T09:06:23.620Z,1003.25
2017-11-25T09:07:23.609Z,1003.24
2017-11-25T09:08:23.596Z,1003.28
2017-11-25T09:09:23.595Z,1003.31
2017-11-25T09:10:23.573Z,1003.29
2017-11-25T09:11:23.563Z,1003.32
2017-11-25T09:12:23.552Z,1003.36
2017-11-25T09:13:23.547Z,1003.37
2017-11-25T09:14:23.530Z,1003.39
2017-11-25T09:15:23.522Z,1003.40
2017-11-25T09:16:23.510Z,1003.42
2017-11-25T09:17:23.500Z,1003.42
2017-11-25T09:18:23.489Z,1003.48
2017-11-25T09:19:23.480Z,1003.47
2017-11-25T09:20:23.467Z,1003.42
2017-11-25T09:21:23.458Z,1003.45
2017-11-25T09:22:23.446Z,1003.43
2017-11-25T09:23:23.433Z,1003.41
2017-11-25T09:24:23.426Z,1003.46
2017-11-25T09:25:23.414Z,1003.43
2017-11-25T09:26:23.401Z,1003.45
2017-11-25T09:27:23.431Z,1003.47
2017-11-25T09:28:23.399Z,1003.47
2017-11-25T09:29:23.376Z,1003.49
2017-11-25T09:30:23.360Z,1003.51
2017-11-25T09:31:23.350Z,1003.50
2017-11-25T09:32:23.342Z,1003.47
2017-11-25T09:33:23.327Z,1003.47
2017-11-25T09:34:23.317Z,1003.48
2017-11-25T09:35:23.306Z,1003.49
2017-11-25T09:36:23.296Z,1003.51
2017-11-25T09:37:23.287Z,1003.50
2017-11-25T09:38:23.272Z,1003.53
2017-11-25T09:39:23.265Z,1003.51
2017-11-25T09:40:23.253Z,1003.48
2017-11-25T09:41:23.244Z,1003.48
2017-11-25T09:42:23.233Z,1003.48
2017-11-25T09:43:23.223Z,1003.47
2017-11-25T09:44:23.212Z,1003.52
2017-11-25T09:45:23.213Z,1003.51
2017-11-25T09:46:23.189Z,1003.52
2017-11-25T09:47:23.184Z,1003.54
2017-11-25T09:48:23.169Z,1003.59
2017-11-25T09:49:23.173Z,1003.54
2017-11-25T09:50:23.148Z,1003.57
2017-11-25T09:51:23.139Z,1003.59
2017-11-25T09:52:23.128Z,1003.55
2017-11-25T09:53:23.122Z,1003.57
2017-11-25T09:54:23.106Z,1003.53
2017-11-25T09:55:23.097Z,1003.55
2017-11-25T09:56:23.090Z,1003.53
2017-11-25T09:57:23.078Z,1003.47
2017-11-25T09:58:23.073Z,1003.48
2017-11-25T09:59:23.064Z,1003.51
2017-11-25T10:00:23.046Z,1003.50
2017-11-25T10:01:23.035Z,1003.48
2017-11-25T10:02:23.029Z,1003.45
2017-11-25T10:03:23.015Z,1003.48
2017-11-25T10:04:23.006Z,1003.52
2017-11-25T10:05:22.997Z,1003.52
2017-11-25T10:06:22.985Z,1003.56
2017-11-25T10:07:22.974Z,1003.55
2017-11-25T10:08:22.965Z,1003.56
2017-11-25T10:09:22.958Z,1003.56
2017-11-25T10:10:22.942Z,1003.58
2017-11-25T10:11:22.930Z,1003.56
2017-11-25T10:12:22.919Z,1003.62
2017-11-25T10:13:22.919Z,1003.59
2017-11-25T10:14:22.926Z,1003.57
2017-11-25T10:15:22.890Z,1003.59
2017-11-25T10:16:22.887Z,1003.57
2017-11-25T10:17:22.869Z,1003.55
2017-11-25T10:18:22.868Z,1003.59
2017-11-25T10:19:22.852Z,1003.61
2017-11-25T10:20:22.842Z,1003.60
2017-11-25T10:21:22.830Z,1003.61
2017-11-25T10:22:22.819Z,1003.60
2017-11-25T10:23:22.808Z,1003.62
2017-11-25T10:24:22.799Z,1003.66
2017-11-25T10:25:22.793Z,1003.66
2017-11-25T10:26:22.791Z,1003.67
2017-11-25T10:27:22.778Z,1003.62
2017-11-25T10:28:22.758Z,1003.66
2017-11-25T10:29:22.751Z,1003.67
2017-11-25T10:30:22.739Z,1003.67
2017-11-25T10:31:22.735Z,1003.66
2017-11-25T10:32:22.726Z,1003.67
2017-11-25T10:33:22.729Z,1003.65
2017-11-25T10:34:22.701Z,1003.62
2017-11-25T10:35:22.690Z,1003.60
2017-11-25T10:36:22.682Z,1003.60
2017-11-25T10:37:22.669Z,1003.59
2017-11-25T10:38:22.657Z,1003.64
2017-11-25T10:39:22.648Z,1003.61
2017-11-25T10:40:22.635Z,1003.65
2017-11-25T10:41:22.635Z,1003.65
2017-11-25T10:42:22.617Z,1003.67
2017-11-25T10:43:22.618Z,1003.68
2017-11-25T10:44:22.599Z,1003.70
2017-11-25T10:45:22.601Z,1003.70
2017-11-25T10:46:22.577Z,1003.71
2017-11-25T10:47:22.565Z,1003.71
2017-11-25T10:48:22.618Z,1003.72
2017-11-25T10:49:22.553Z,1003.72
2017-11-25T10:50:22.538Z,1003.71
2017-11-25T10:51:22.536Z,1003.70
2017-11-25T10:52:22.516Z,1003.71
2017-11-25T10:53:22.510Z,1003.74
2017-11-25T10:54:22.497Z,1003.73
2017-11-25T10:55:22.503Z,1003.72
2017-11-25T10:56:22.478Z,1003.70
2017-11-25T10:57:22.476Z,1003.72
2017-11-25T10:58:22.460Z,1003.70
2017-11-25T10:59:22.453Z,1003.73
2017-11-25T11:00:22.437Z,1003.75
2017-11-25T11:01:22.432Z,1003.68
2017-11-25T11:02:22.418Z,1003.70
2017-11-25T11:03:22.417Z,1003.72
2017-11-25T11:04:22.400Z,1003.68
2017-11-25T11:05:22.391Z,1003.75
2017-11-25T11:06:22.381Z,1003.68
2017-11-25T11:07:22.372Z,1003.72
2017-11-25T11:08:22.368Z,1003.69
2017-11-25T11:09:22.354Z,1003.73
2017-11-25T11:10:22.342Z,1003.73
2017-11-25T11:11:22.335Z,1003.80
2017-11-25T11:12:22.325Z,1003.77
2017-11-25T11:13:22.331Z,1003.78
2017-11-25T11:14:22.308Z,1003.78
2017-11-25T11:15:22.300Z,1003.81
2017-11-25T11:16:22.293Z,1003.82
2017-11-25T11:17:22.284Z,1003.86
2017-11-25T11:18:22.275Z,1003.86
2017-11-25T11:19:22.266Z,1003.85
2017-11-25T11:20:22.259Z,1003.88
2017-11-25T11:21:22.251Z,1003.80
2017-11-25T11:22:22.246Z,1003.82
2017-11-25T11:23:22.243Z,1003.87
2017-11-25T11:24:22.228Z,1003.91
2017-11-25T11:25:22.218Z,1003.90
2017-11-25T11:26:22.211Z,1003.90
2017-11-25T11:27:22.209Z,1003.95
2017-11-25T11:28:22.196Z,1003.93
2017-11-25T11:29:22.202Z,1003.94
2017-11-25T11:30:22.180Z,1003.94
2017-11-25T11:31:22.173Z,1003.96
2017-11-25T11:32:22.172Z,1003.94
2017-11-25T11:33:22.165Z,1003.96
2017-11-25T11:34:22.155Z,1003.96
2017-11-25T11:35:22.146Z,1003.99
2017-11-25T11:36:22.139Z,1003.96
2017-11-25T11:37:22.146Z,1003.97
2017-11-25T11:38:22.133Z,1003.97
2017-11-25T11:39:22.117Z,1004.02
2017-11-25T11:40:22.111Z,1004.04
2017-11-25T11:41:22.107Z,1004.05
2017-11-25T11:42:22.098Z,1004.01
2017-11-25T11:43:22.091Z,1004.02
2017-11-25T11:44:22.086Z,1004.04
2017-11-25T11:45:22.081Z,1004.02
2017-11-25T11:46:22.074Z,1004.05
2017-11-25T11:47:22.069Z,1004.05
2017-11-25T11:48:22.065Z,1004.03
2017-11-25T11:49:22.059Z,1004.06
2017-11-25T11:50:22.052Z,1004.02
2017-11-25T11:51:22.045Z,1004.03
2017-11-25T11:52:22.038Z,1004.06
2017-11-25T11:53:22.057Z,1004.00
2017-11-25T11:54:22.032Z,1004.01
2017-11-25T11:55:22.026Z,1003.96
2017-11-25T11:56:22.022Z,1003.95
2017-11-25T11:57:22.016Z,1004.01
2017-11-25T11:58:22.009Z,1004.03
2017-11-25T11:59:22.006Z,1004.04
2017-11-25T12:00:22.000Z,1004.06
2017-11-25T12:01:21.998Z,1004.07
2017-11-25T12:02:21.997Z,1004.03
2017-11-25T12:03:21.986Z,1004.06
2017-11-25T12:04:21.982Z,1004.04
2017-11-25T12:05:21.981Z,1004.03